Cesis Airport


Codes: EVCA/
Name: Cesis Airport
City: Cesis
Country: Latvia
Elevation: 367 ft.

Photos at Cesis Airport


   Photos courtesy of SpottingLog. You can add your own sightings and photos by signing up for a free trial today.



No photos found.

Weather at Cesis Airport


Time (UTC)DescriptionTempratureWindCloud coverageVisibilityPressureHumidity
17-Jun-2024 06:00Light Rain20°C4 mph, E84%9635m1013hPa79%
17-Jun-2024 09:00Moderate Rain20°C7 mph, E89%10000m1013hPa81%
17-Jun-2024 12:00Light Rain20°C7 mph, E95%10000m1012hPa83%
17-Jun-2024 15:00Light Rain19°C4 mph, E100%10000m1011hPa79%
17-Jun-2024 18:00Light Rain17°C4 mph, NE100%10000m1012hPa90%
17-Jun-2024 21:00Overcast Clouds15°C2 mph, N99%10000m1012hPa98%
18-Jun-2024 00:00Overcast Clouds14°C4 mph, W98%10000m1012hPa99%
18-Jun-2024 03:00Scattered Clouds13°C4 mph, W49%10000m1012hPa98%
18-Jun-2024 06:00Scattered Clouds18°C7 mph, W32%10000m1012hPa62%
18-Jun-2024 09:00Few Clouds22°C9 mph, W22%10000m1013hPa43%
18-Jun-2024 12:00Scattered Clouds24°C9 mph, W28%10000m1012hPa40%
18-Jun-2024 15:00Broken Clouds22°C9 mph, W59%10000m1012hPa51%
18-Jun-2024 18:00Scattered Clouds18°C4 mph, W32%10000m1012hPa77%
18-Jun-2024 21:00Few Clouds13°C4 mph, SW11%10000m1013hPa94%
19-Jun-2024 00:00Broken Clouds11°C4 mph, SW56%10000m1013hPa94%
19-Jun-2024 03:00Overcast Clouds12°C7 mph, SW100%10000m1011hPa88%
19-Jun-2024 06:00Overcast Clouds15°C9 mph, S89%10000m1009hPa70%
19-Jun-2024 09:00Moderate Rain12°C7 mph, NE100%5298m1006hPa98%
19-Jun-2024 12:00Moderate Rain11°C9 mph, NW100%2398m1003hPa99%
19-Jun-2024 15:00Light Rain12°C7 mph, W100%6525m1005hPa99%
19-Jun-2024 18:00Light Rain12°C11 mph, SW90%10000m1004hPa94%
19-Jun-2024 21:00Light Rain11°C11 mph, SW87%10000m1003hPa95%
20-Jun-2024 00:00Light Rain8°C11 mph, SW66%10000m1003hPa97%
20-Jun-2024 03:00Scattered Clouds9°C11 mph, SW30%10000m1003hPa97%
20-Jun-2024 06:00Light Rain11°C11 mph, NW64%10000m1005hPa93%
20-Jun-2024 09:00Light Rain12°C13 mph, W94%10000m1007hPa77%
20-Jun-2024 12:00Light Rain14°C16 mph, W96%10000m1009hPa64%
20-Jun-2024 15:00Overcast Clouds14°C13 mph, W99%10000m1010hPa64%
20-Jun-2024 18:00Broken Clouds13°C11 mph, W60%10000m1011hPa59%
20-Jun-2024 21:00Broken Clouds12°C9 mph, W75%10000m1011hPa74%
21-Jun-2024 00:00Broken Clouds9°C9 mph, SW69%10000m1011hPa97%
21-Jun-2024 03:00Scattered Clouds11°C9 mph, SW47%8613m1010hPa97%
21-Jun-2024 06:00Scattered Clouds17°C11 mph, NW48%10000m1010hPa54%
21-Jun-2024 09:00Clear Sky18°C16 mph, NW0%10000m1011hPa50%
21-Jun-2024 12:00Clear Sky18°C18 mph, NW0%10000m1011hPa45%
21-Jun-2024 15:00Clear Sky17°C16 mph, NW1%10000m1012hPa51%
21-Jun-2024 18:00Clear Sky13°C11 mph, NW0%10000m1012hPa62%
21-Jun-2024 21:00Clear Sky11°C9 mph, NW2%10000m1012hPa74%
22-Jun-2024 00:00Clear Sky8°C4 mph, W1%10000m1012hPa91%
22-Jun-2024 03:00Clear Sky10°C4 mph, W0%10000m1013hPa89%